Time;durP1;ratioP1;P1;durP2;ratioP2;P2;SDS_P1;SDS_P2;PMS_P1;PMS_P2;Temp;Humidity;BMP_temperature;BMP_pressure;BME280_temperature;BME280_humidity;BME280_pressure;Samples;Min_cycle;Max_cycle;Signal;HPM_P1;HPM_P2
2021/10/14 00:01:32;;;;;;;6.50;2.90;;;12.40;84.00;;;;;;5050454;28;20033;-82
2021/10/14 00:03:58;;;;;;;7.15;3.17;;;12.30;83.30;;;;;;5035252;28;20083;-82
2021/10/14 00:06:23;;;;;;;5.03;3.00;;;12.40;83.40;;;;;;5050502;28;20029;-82
2021/10/14 00:08:49;;;;;;;5.22;2.63;;;12.40;83.40;;;;;;5050272;28;20054;-82
2021/10/14 00:11:15;;;;;;;4.32;2.63;;;12.40;83.50;;;;;;5050409;28;20022;-82
2021/10/14 00:13:40;;;;;;;6.60;2.75;;;12.40;83.40;;;;;;5050085;28;20509;-82
2021/10/14 00:16:06;;;;;;;6.93;2.83;;;12.40;83.40;;;;;;5034536;28;20108;-82
2021/10/14 00:18:32;;;;;;;4.95;2.70;;;12.40;83.40;;;;;;5034579;28;20516;-82
2021/10/14 00:20:57;;;;;;;10.68;3.15;;;12.40;83.50;;;;;;5049624;28;20076;-82
2021/10/14 00:23:23;;;;;;;6.35;3.20;;;12.40;83.50;;;;;;5049400;28;20038;-81
2021/10/14 00:25:49;;;;;;;5.50;3.00;;;12.50;83.50;;;;;;5033825;28;20029;-81
2021/10/14 00:28:14;;;;;;;6.20;3.13;;;12.50;83.40;;;;;;5034190;28;20029;-82
2021/10/14 00:30:40;;;;;;;6.32;3.50;;;12.50;83.40;;;;;;5049433;28;20488;-82
2021/10/14 00:33:05;;;;;;;5.47;3.20;;;12.60;83.40;;;;;;5049356;28;20021;-82
2021/10/14 00:35:31;;;;;;;7.95;3.63;;;12.60;83.40;;;;;;5049626;28;20386;-82
2021/10/14 00:37:56;;;;;;;8.40;4.15;;;12.60;83.50;;;;;;5049682;28;20033;-81
2021/10/14 00:40:23;;;;;;;5.65;3.28;;;12.60;83.50;;;;;;5049220;28;20481;-82
2021/10/14 00:42:48;;;;;;;5.47;4.20;;;12.60;83.60;;;;;;5049110;28;20028;-81
2021/10/14 00:45:14;;;;;;;7.40;3.85;;;12.60;83.60;;;;;;5033932;28;20421;-82
2021/10/14 00:47:40;;;;;;;7.00;3.95;;;12.60;83.60;;;;;;5049189;28;20017;-82
2021/10/14 00:50:08;;;;;;;11.20;4.72;;;12.60;83.70;;;;;;5033895;28;20014;-82
2021/10/14 00:52:37;;;;;;;6.53;3.67;;;12.60;83.80;;;;;;5033912;28;20132;-81
2021/10/14 00:55:03;;;;;;;6.80;4.25;;;12.60;83.80;;;;;;5033655;28;20030;-82
2021/10/14 00:57:29;;;;;;;4.93;3.75;;;12.60;83.80;;;;;;5048983;28;20493;-81
2021/10/14 00:59:55;;;;;;;9.70;4.05;;;12.60;83.80;;;;;;5049108;28;20086;-81
2021/10/14 01:02:21;;;;;;;5.97;4.43;;;12.60;83.90;;;;;;5049082;28;20022;-82
2021/10/14 01:04:47;;;;;;;8.57;4.45;;;12.70;83.80;;;;;;5033496;28;20116;-81
2021/10/14 01:07:12;;;;;;;9.90;4.72;;;12.70;83.80;;;;;;5033539;28;20025;-82
2021/10/14 01:09:40;;;;;;;7.40;5.05;;;12.70;83.80;;;;;;5049101;28;20039;-81
2021/10/14 01:12:07;;;;;;;9.05;5.38;;;12.70;83.90;;;;;;5033352;28;20013;-81
2021/10/14 01:14:33;;;;;;;6.72;4.88;;;12.70;83.90;;;;;;5048763;28;20027;-82
2021/10/14 01:17:00;;;;;;;7.22;4.95;;;12.70;83.90;;;;;;5048813;28;20052;-81
2021/10/14 01:19:26;;;;;;;7.97;5.60;;;12.70;84.00;;;;;;5048683;28;20480;-81
2021/10/14 01:21:52;;;;;;;12.60;6.20;;;12.70;84.00;;;;;;5048563;28;20041;-81
2021/10/14 01:24:19;;;;;;;9.95;5.93;;;12.70;84.00;;;;;;5048341;28;20033;-81
2021/10/14 01:26:45;;;;;;;10.85;7.13;;;12.70;84.20;;;;;;5033322;28;20017;-80
2021/10/14 01:29:10;;;;;;;9.40;6.85;;;12.60;84.80;;;;;;5048271;28;20013;-80
2021/10/14 01:31:36;;;;;;;11.95;6.90;;;12.60;84.40;;;;;;5048609;28;20531;-80
2021/10/14 01:34:03;;;;;;;10.85;6.70;;;12.60;84.50;;;;;;5048294;28;20033;-81
2021/10/14 01:36:29;;;;;;;9.98;7.07;;;12.60;84.60;;;;;;5047719;28;20022;-81
2021/10/14 01:38:54;;;;;;;8.55;6.70;;;12.50;84.60;;;;;;5032841;28;20049;-82
2021/10/14 01:41:20;;;;;;;11.90;7.63;;;12.60;84.70;;;;;;5048419;28;20469;-81
2021/10/14 01:43:46;;;;;;;11.40;7.75;;;12.60;84.80;;;;;;5032906;28;20176;-82
2021/10/14 01:46:12;;;;;;;11.25;8.00;;;12.60;84.80;;;;;;5048152;28;20029;-81
2021/10/14 01:48:37;;;;;;;10.90;7.20;;;12.60;84.90;;;;;;5048333;28;20164;-82
2021/10/14 01:51:04;;;;;;;11.65;8.07;;;12.60;84.90;;;;;;5048421;28;20052;-81
2021/10/14 01:53:30;;;;;;;11.68;7.70;;;12.60;85.00;;;;;;5032762;28;20119;-81
2021/10/14 01:55:55;;;;;;;11.35;7.60;;;12.60;85.00;;;;;;5033005;28;20474;-81
2021/10/14 01:58:21;;;;;;;11.57;8.23;;;12.60;85.00;;;;;;5032799;28;20034;-82
2021/10/14 02:00:51;;;;;;;15.60;8.57;;;12.60;85.00;;;;;;5032659;28;20080;-81
2021/10/14 02:03:18;;;;;;;10.93;7.95;;;12.60;85.10;;;;;;5032655;28;20108;-82
2021/10/14 02:05:44;;;;;;;13.02;9.13;;;12.60;85.00;;;;;;5048225;28;20536;-82
2021/10/14 02:08:09;;;;;;;14.25;8.60;;;12.60;85.10;;;;;;5032616;28;20381;-82
2021/10/14 02:10:36;;;;;;;15.73;9.85;;;12.60;85.20;;;;;;5047753;28;20108;-75
2021/10/14 02:13:02;;;;;;;16.08;9.23;;;12.70;85.90;;;;;;5047537;28;20026;-75
2021/10/14 02:15:28;;;;;;;17.48;10.38;;;12.60;85.20;;;;;;5047526;28;20140;-74
2021/10/14 02:17:53;;;;;;;14.45;9.32;;;12.60;85.40;;;;;;5047557;28;20033;-75
2021/10/14 02:20:19;;;;;;;15.18;10.13;;;12.60;85.50;;;;;;5031988;28;20555;-75
2021/10/14 02:22:45;;;;;;;14.68;10.40;;;12.60;85.50;;;;;;5047436;28;20453;-75
2021/10/14 02:25:13;;;;;;;15.60;10.35;;;12.60;85.60;;;;;;5047369;28;20078;-75
2021/10/14 02:27:38;;;;;;;16.52;11.65;;;12.60;85.70;;;;;;5032302;28;20014;-75
2021/10/14 02:30:06;;;;;;;18.00;11.95;;;12.60;86.00;;;;;;5047354;28;20052;-76
2021/10/14 02:32:32;;;;;;;17.15;11.95;;;12.60;86.10;;;;;;5047634;28;20022;-75
2021/10/14 02:34:58;;;;;;;20.92;12.20;;;12.60;86.30;;;;;;5047724;28;20036;-75
2021/10/14 02:37:25;;;;;;;17.95;11.75;;;12.50;86.30;;;;;;5047358;28;20167;-75
2021/10/14 02:39:50;;;;;;;21.20;11.93;;;12.50;86.50;;;;;;5047370;28;20049;-75
2021/10/14 02:42:16;;;;;;;19.63;11.70;;;12.60;86.50;;;;;;5047438;28;20098;-75
2021/10/14 02:44:42;;;;;;;24.40;12.32;;;12.60;86.50;;;;;;5032152;28;20507;-75
2021/10/14 02:47:08;;;;;;;21.63;11.88;;;12.60;86.70;;;;;;5047170;28;20470;-75
2021/10/14 02:49:34;;;;;;;21.92;12.77;;;12.60;86.60;;;;;;5050371;28;20075;-75
2021/10/14 02:51:59;;;;;;;24.92;14.27;;;12.60;86.60;;;;;;5050909;28;20021;-75
2021/10/14 02:54:25;;;;;;;22.50;12.98;;;12.70;86.80;;;;;;5035815;28;20101;-75
2021/10/14 02:56:51;;;;;;;24.08;12.55;;;12.60;86.70;;;;;;5050869;28;20107;-75
2021/10/14 02:59:16;;;;;;;24.67;13.35;;;12.70;86.90;;;;;;5050934;28;20409;-75
2021/10/14 03:01:42;;;;;;;23.67;13.27;;;12.70;86.90;;;;;;5050801;28;20037;-75
2021/10/14 03:04:07;;;;;;;24.15;13.80;;;12.70;87.00;;;;;;5035255;28;20022;-75
2021/10/14 03:06:33;;;;;;;24.13;12.95;;;12.70;87.00;;;;;;5050788;28;20087;-74
2021/10/14 03:08:58;;;;;;;25.55;13.50;;;12.70;87.00;;;;;;5050707;28;20029;-75
2021/10/14 03:11:24;;;;;;;23.38;14.27;;;12.70;87.00;;;;;;5050570;28;20024;-75
2021/10/14 03:13:50;;;;;;;23.25;13.85;;;12.70;87.10;;;;;;5035306;28;20021;-75
2021/10/14 03:16:15;;;;;;;22.70;13.57;;;12.80;87.10;;;;;;5050649;28;20508;-76
2021/10/14 03:18:42;;;;;;;24.90;13.10;;;12.80;87.10;;;;;;5035320;28;20033;-75
2021/10/14 03:21:08;;;;;;;24.42;13.32;;;12.80;87.10;;;;;;5050151;28;20486;-75
2021/10/14 03:23:33;;;;;;;22.42;14.20;;;12.70;87.10;;;;;;5050517;28;20029;-75
2021/10/14 03:26:02;;;;;;;20.23;12.90;;;12.70;87.30;;;;;;5050331;28;20083;-75
2021/10/14 03:28:28;;;;;;;21.30;12.85;;;12.80;87.30;;;;;;5050422;28;20018;-74
2021/10/14 03:30:54;;;;;;;21.65;12.73;;;12.70;87.30;;;;;;5035005;28;20036;-76
2021/10/14 03:33:19;;;;;;;19.95;12.90;;;12.70;87.30;;;;;;5050244;28;20026;-75
2021/10/14 03:35:45;;;;;;;21.00;13.77;;;12.70;87.40;;;;;;5050217;28;20033;-75
2021/10/14 03:38:11;;;;;;;21.27;12.90;;;12.70;88.10;;;;;;5050096;28;20061;-75
2021/10/14 03:40:36;;;;;;;19.30;12.43;;;12.70;87.50;;;;;;5050087;28;20100;-74
2021/10/14 03:43:02;;;;;;;16.27;12.77;;;12.70;87.50;;;;;;5049926;28;20021;-75
2021/10/14 03:45:27;;;;;;;19.85;12.63;;;12.70;87.50;;;;;;5050043;28;20158;-75
2021/10/14 03:47:53;;;;;;;19.02;12.13;;;12.70;87.50;;;;;;5050051;28;20021;-75
2021/10/14 03:50:18;;;;;;;18.00;11.80;;;12.70;87.50;;;;;;5034757;28;20060;-75
2021/10/14 03:52:44;;;;;;;15.75;11.38;;;12.80;87.50;;;;;;5049987;28;20029;-75
2021/10/14 03:55:10;;;;;;;16.58;11.38;;;12.80;87.40;;;;;;5034667;28;20392;-75
2021/10/14 03:57:35;;;;;;;17.70;12.48;;;12.80;87.30;;;;;;5049923;28;20469;-75
2021/10/14 04:00:01;;;;;;;21.17;12.80;;;12.80;87.30;;;;;;5033582;28;20033;-75
2021/10/14 04:02:26;;;;;;;17.98;12.50;;;12.80;87.30;;;;;;5049869;28;20025;-75
2021/10/14 04:04:52;;;;;;;16.67;13.02;;;12.80;87.30;;;;;;5049870;28;20116;-75
2021/10/14 04:07:17;;;;;;;18.95;12.88;;;12.80;87.30;;;;;;5049858;28;20034;-75
2021/10/14 04:09:43;;;;;;;19.33;11.80;;;12.80;87.30;;;;;;5049658;28;20026;-75
2021/10/14 04:12:09;;;;;;;20.95;12.23;;;12.90;87.30;;;;;;5034369;28;20049;-75
2021/10/14 04:14:34;;;;;;;16.40;11.60;;;12.80;87.20;;;;;;5034316;28;20049;-75
2021/10/14 04:17:00;;;;;;;17.95;11.70;;;12.90;87.30;;;;;;5049506;28;20024;-76
2021/10/14 04:19:25;;;;;;;19.27;12.23;;;12.90;87.20;;;;;;5049425;28;20071;-75
2021/10/14 04:21:51;;;;;;;17.38;11.73;;;12.90;87.10;;;;;;5049117;28;20072;-75
2021/10/14 04:24:18;;;;;;;18.60;12.10;;;12.90;87.10;;;;;;5034023;28;20075;-75
2021/10/14 04:26:44;;;;;;;15.30;11.85;;;13.00;87.10;;;;;;5049348;28;20025;-75
2021/10/14 04:29:12;;;;;;;19.00;12.73;;;12.90;86.90;;;;;;5033837;28;20044;-75
2021/10/14 04:31:37;;;;;;;16.15;12.80;;;12.90;86.90;;;;;;5032598;28;20033;-75
2021/10/14 04:34:06;;;;;;;17.63;12.50;;;12.90;86.90;;;;;;5049013;28;20496;-75
2021/10/14 04:36:31;;;;;;;21.73;14.70;;;12.90;87.00;;;;;;5033621;28;20108;-75
2021/10/14 04:38:58;;;;;;;18.27;13.05;;;12.90;86.90;;;;;;5033647;28;20049;-75
2021/10/14 04:41:24;;;;;;;17.85;12.68;;;12.90;86.90;;;;;;5033624;28;20025;-75
2021/10/14 04:43:49;;;;;;;19.88;12.27;;;12.90;87.00;;;;;;5048804;28;20033;-76
2021/10/14 04:46:15;;;;;;;20.98;13.40;;;12.90;87.00;;;;;;5048979;28;20531;-74
2021/10/14 04:48:40;;;;;;;18.15;12.85;;;12.90;87.00;;;;;;5048659;28;20025;-75
2021/10/14 04:51:06;;;;;;;19.13;13.55;;;12.90;87.10;;;;;;5033644;28;20160;-75
2021/10/14 04:53:33;;;;;;;17.38;12.77;;;12.90;87.10;;;;;;5048643;28;20029;-75
2021/10/14 04:56:01;;;;;;;18.70;12.73;;;12.90;87.10;;;;;;5033317;28;20056;-75
2021/10/14 04:58:27;;;;;;;18.60;13.30;;;12.90;87.10;;;;;;5033411;28;20032;-76
2021/10/14 05:00:52;;;;;;;17.48;13.70;;;12.90;87.00;;;;;;5048635;28;20073;-75
2021/10/14 05:03:19;;;;;;;19.65;13.70;;;12.90;87.00;;;;;;5048564;28;20029;-75
2021/10/14 05:05:44;;;;;;;19.05;13.18;;;12.90;87.10;;;;;;5033198;28;20507;-75
2021/10/14 05:08:11;;;;;;;17.05;12.95;;;12.90;87.20;;;;;;5048253;28;20136;-75
2021/10/14 05:10:37;;;;;;;17.70;13.70;;;12.90;87.20;;;;;;5032918;28;20018;-75
2021/10/14 05:13:02;;;;;;;17.35;12.95;;;12.90;87.20;;;;;;5033109;28;20040;-75
2021/10/14 05:15:28;;;;;;;21.25;13.15;;;12.90;87.20;;;;;;5033020;28;20023;-75
2021/10/14 05:17:54;;;;;;;16.63;12.88;;;12.90;87.20;;;;;;5032997;28;20026;-75
2021/10/14 05:20:19;;;;;;;18.67;12.93;;;13.00;87.20;;;;;;5032800;28;20037;-75
2021/10/14 05:22:45;;;;;;;18.92;12.98;;;12.90;87.20;;;;;;5048084;28;20029;-75
2021/10/14 05:25:11;;;;;;;16.02;12.25;;;13.00;87.30;;;;;;5048188;28;20087;-75
2021/10/14 05:27:37;;;;;;;17.48;13.13;;;12.90;87.20;;;;;;5032984;28;20099;-75
2021/10/14 05:30:04;;;;;;;19.48;13.68;;;13.00;87.30;;;;;;5032718;28;20470;-76
2021/10/14 05:32:29;;;;;;;22.25;13.73;;;12.90;87.30;;;;;;5032751;28;20031;-75
2021/10/14 05:34:55;;;;;;;18.90;13.60;;;12.90;87.30;;;;;;5048024;28;20017;-75
2021/10/14 05:37:24;;;;;;;17.65;13.05;;;12.90;87.40;;;;;;5032730;28;20033;-75
2021/10/14 05:39:49;;;;;;;18.98;13.48;;;13.00;87.50;;;;;;5047968;28;20033;-75
2021/10/14 05:42:16;;;;;;;18.65;13.52;;;12.90;87.50;;;;;;5047884;28;20032;-76
2021/10/14 05:44:42;;;;;;;16.85;12.93;;;12.90;87.60;;;;;;5047805;28;20512;-75
2021/10/14 05:47:07;;;;;;;18.63;13.02;;;12.90;87.60;;;;;;5047809;28;20045;-76
2021/10/14 05:49:36;;;;;;;21.40;13.45;;;13.00;87.60;;;;;;5032513;28;20105;-75
2021/10/14 05:52:02;;;;;;;18.73;13.38;;;12.90;87.60;;;;;;5048127;28;20370;-75
2021/10/14 05:54:28;;;;;;;18.15;13.38;;;13.00;87.70;;;;;;5047977;28;20036;-75
2021/10/14 05:56:53;;;;;;;19.33;13.18;;;13.00;87.70;;;;;;5047836;28;20014;-75
2021/10/14 05:59:19;;;;;;;21.05;15.57;;;13.00;87.70;;;;;;5032367;28;20490;-75
2021/10/14 06:01:45;;;;;;;26.00;18.40;;;13.00;87.70;;;;;;5047588;28;20046;-74
2021/10/14 06:04:10;;;;;;;22.25;15.82;;;13.00;87.90;;;;;;5047515;28;20022;-74
2021/10/14 06:06:36;;;;;;;20.48;14.07;;;13.00;87.80;;;;;;5032337;28;20381;-75
2021/10/14 06:09:01;;;;;;;19.15;13.30;;;13.00;87.80;;;;;;5047721;28;20025;-74
2021/10/14 06:11:27;;;;;;;17.20;12.73;;;13.00;87.80;;;;;;5032424;28;20033;-75
2021/10/14 06:13:53;;;;;;;19.08;13.25;;;13.00;87.90;;;;;;5047571;28;20029;-75
2021/10/14 06:16:18;;;;;;;18.38;13.40;;;13.00;87.80;;;;;;5047626;28;20017;-75
2021/10/14 06:18:44;;;;;;;15.70;12.30;;;13.10;87.90;;;;;;5032305;28;20029;-75
2021/10/14 06:21:09;;;;;;;19.15;12.82;;;13.10;87.90;;;;;;5047408;28;20029;-76
2021/10/14 06:23:35;;;;;;;18.83;13.57;;;13.10;87.90;;;;;;5049333;28;20393;-75
2021/10/14 06:26:00;;;;;;;17.10;12.70;;;13.00;87.90;;;;;;5036230;28;20060;-75
2021/10/14 06:28:26;;;;;;;19.17;13.13;;;13.10;87.90;;;;;;5051570;28;20021;-75
2021/10/14 06:30:52;;;;;;;19.58;13.57;;;13.10;87.90;;;;;;5036243;28;20033;-75
2021/10/14 06:36:40;;;;;;;18.70;13.60;;;13.10;87.90;;;;;;5036351;28;20029;-73
2021/10/14 06:39:05;;;;;;;16.65;12.35;;;13.10;87.90;;;;;;5051200;28;20022;-72
2021/10/14 06:44:55;;;;;;;18.65;13.85;;;13.10;88.00;;;;;;5036101;28;20079;-75
2021/10/14 06:47:21;;;;;;;22.67;14.52;;;13.10;88.00;;;;;;5050397;28;20445;-75
2021/10/14 06:49:48;;;;;;;21.05;13.63;;;13.10;88.10;;;;;;5035767;28;20079;-75
2021/10/14 06:52:15;;;;;;;23.10;14.85;;;13.10;88.10;;;;;;5035703;28;20058;-74
2021/10/14 06:54:44;;;;;;;23.45;15.20;;;13.10;88.20;;;;;;5050905;28;20014;-76
2021/10/14 06:57:11;;;;;;;23.63;15.60;;;13.10;88.20;;;;;;5048045;28;20029;-76
2021/10/14 06:59:37;;;;;;;24.40;15.65;;;13.10;88.30;;;;;;5035589;28;20099;-76
2021/10/14 07:02:02;;;;;;;30.10;17.02;;;13.10;88.40;;;;;;5035431;28;20022;-77
2021/10/14 07:04:28;;;;;;;25.33;17.38;;;13.10;88.50;;;;;;5050664;28;20029;-76
2021/10/14 07:06:53;;;;;;;24.33;16.25;;;13.10;88.60;;;;;;5035396;28;20029;-76
2021/10/14 07:09:20;;;;;;;24.92;16.20;;;13.10;88.70;;;;;;5050569;28;20047;-76
2021/10/14 07:11:54;;;;;;;23.45;16.25;;;13.20;88.70;;;;;;5050626;28;20112;-75
2021/10/14 07:14:20;;;;;;;;;;;13.20;88.80;;;;;;5035714;28;20036;-76
2021/10/14 07:16:46;;;;;;;24.02;16.13;;;13.10;88.80;;;;;;5050619;28;19905;-75
2021/10/14 07:19:11;;;;;;;20.83;14.70;;;13.10;88.70;;;;;;5050353;28;20137;-77
2021/10/14 07:21:37;;;;;;;22.67;14.82;;;13.20;88.80;;;;;;5050099;28;20123;-76
2021/10/14 07:24:03;;;;;;;19.00;14.43;;;13.20;88.80;;;;;;5050340;28;20056;-77
2021/10/14 07:26:29;;;;;;;22.58;15.40;;;13.20;88.80;;;;;;5050517;28;20075;-75
2021/10/14 07:28:55;;;;;;;21.65;15.88;;;13.20;88.80;;;;;;5050366;28;20018;-77
2021/10/14 07:31:21;;;;;;;25.95;17.00;;;13.20;88.80;;;;;;5050199;28;20100;-77
2021/10/14 07:33:46;;;;;;;24.23;16.33;;;13.20;88.80;;;;;;5050029;28;20142;-76
2021/10/14 07:36:12;;;;;;;21.40;15.43;;;13.30;89.50;;;;;;5049037;28;20130;-77
2021/10/14 07:38:37;;;;;;;26.58;16.45;;;13.30;89.00;;;;;;5050030;28;20124;-76
2021/10/14 07:44:25;;;;;;;21.17;15.32;;;13.40;88.90;;;;;;5034778;28;20040;-77
2021/10/14 07:46:51;;;;;;;23.90;15.98;;;13.40;88.80;;;;;;5049984;28;20025;-76
2021/10/14 07:49:19;;;;;;;23.13;16.20;;;13.40;88.80;;;;;;5049914;28;20071;-77
2021/10/14 07:51:44;;;;;;;24.05;15.88;;;13.30;88.80;;;;;;5034783;28;20036;-77
2021/10/14 07:54:10;;;;;;;24.63;17.02;;;13.40;88.90;;;;;;5034753;28;20477;-77
2021/10/14 07:59:57;;;;;;;25.20;16.70;;;13.40;89.20;;;;;;5035021;28;20035;-76
2021/10/14 08:02:23;;;;;;;25.50;17.88;;;13.40;89.20;;;;;;5049880;28;20116;-77
2021/10/14 08:04:52;;;;;;;27.63;17.17;;;13.40;89.20;;;;;;5034445;28;20022;-75
2021/10/14 08:07:18;;;;;;;23.25;17.13;;;13.40;89.20;;;;;;5049590;28;20022;-75
2021/10/14 08:09:44;;;;;;;24.60;17.08;;;13.50;89.30;;;;;;5034360;28;20029;-75
2021/10/14 08:12:11;;;;;;;21.17;16.05;;;13.50;89.20;;;;;;5034295;28;20029;-76
2021/10/14 08:14:37;;;;;;;24.02;16.42;;;13.50;89.20;;;;;;5049728;28;20116;-75
2021/10/14 08:17:03;;;;;;;23.52;16.83;;;13.50;89.30;;;;;;5034200;28;20061;-75
2021/10/14 08:19:30;;;;;;;23.25;16.25;;;13.50;89.30;;;;;;5034221;28;20056;-76
2021/10/14 08:21:56;;;;;;;24.45;16.92;;;13.50;89.30;;;;;;5049459;28;20033;-76
2021/10/14 08:24:22;;;;;;;22.58;16.00;;;13.50;89.30;;;;;;5049340;28;20029;-76
2021/10/14 08:26:47;;;;;;;22.42;16.63;;;13.60;89.40;;;;;;5034186;28;20397;-76
2021/10/14 08:29:13;;;;;;;19.55;15.38;;;13.60;89.30;;;;;;5049309;28;20402;-75
2021/10/14 08:31:38;;;;;;;21.55;16.20;;;13.60;89.30;;;;;;5033958;28;20060;-76
2021/10/14 08:34:04;;;;;;;22.90;16.40;;;13.60;89.30;;;;;;5049230;28;20116;-75
2021/10/14 08:36:30;;;;;;;20.60;15.32;;;13.60;89.30;;;;;;5033915;28;20036;-76
2021/10/14 08:38:55;;;;;;;21.38;15.77;;;13.60;89.30;;;;;;5049229;28;20059;-76
2021/10/14 08:41:21;;;;;;;19.95;14.88;;;13.70;89.30;;;;;;5033835;28;20180;-76
2021/10/14 08:43:49;;;;;;;18.10;14.57;;;13.70;89.30;;;;;;5048962;28;20033;-75
2021/10/14 08:46:15;;;;;;;19.23;14.65;;;13.80;89.30;;;;;;5033183;28;20020;-75
2021/10/14 08:48:42;;;;;;;23.27;16.55;;;13.80;89.20;;;;;;5049058;28;20112;-76
2021/10/14 08:51:07;;;;;;;21.77;15.85;;;13.80;89.10;;;;;;5048861;28;20546;-76
2021/10/14 08:53:33;;;;;;;20.42;15.43;;;13.80;89.20;;;;;;5048759;28;20063;-76
2021/10/14 08:55:59;;;;;;;20.02;14.80;;;13.80;89.20;;;;;;5048611;28;20036;-76
2021/10/14 08:58:27;;;;;;;21.02;14.77;;;13.80;89.20;;;;;;5048617;28;20017;-76
2021/10/14 09:01:10;;;;;;;18.27;14.30;;;13.90;89.20;;;;;;5033531;28;20076;-75
2021/10/14 09:03:41;;;;;;;17.48;14.48;;;13.90;89.20;;;;;;5033206;28;20375;-76
2021/10/14 09:06:11;;;;;;;18.52;14.18;;;13.90;89.00;;;;;;5033165;28;20096;-76
2021/10/14 09:08:45;;;;;;;21.55;15.07;;;13.90;89.00;;;;;;5048489;28;20104;-75
2021/10/14 09:11:14;;;;;;;16.90;13.30;;;14.00;89.00;;;;;;5033014;28;20022;-76
2021/10/14 09:14:04;;;;;;;18.67;14.00;;;14.00;88.90;;;;;;5048406;28;20515;-76
2021/10/14 09:16:38;;;;;;;20.90;14.02;;;14.00;88.80;;;;;;5033257;28;20473;-76
2021/10/14 09:19:12;;;;;;;15.98;12.95;;;14.10;89.30;;;;;;5048237;28;20033;-76
2021/10/14 09:21:40;;;;;;;18.10;13.68;;;14.10;88.70;;;;;;5032939;28;20361;-76
2021/10/14 09:24:25;;;;;;;17.80;13.20;;;14.10;88.50;;;;;;5048240;28;20486;-76
2021/10/14 09:26:53;;;;;;;16.88;12.82;;;14.20;88.60;;;;;;5048181;28;20502;-77
2021/10/14 09:29:21;;;;;;;19.67;14.13;;;14.20;88.50;;;;;;5048653;28;20101;-76
2021/10/14 09:31:52;;;;;;;17.42;13.45;;;14.30;88.60;;;;;;5032833;28;20474;-76
2021/10/14 09:34:32;;;;;;;15.82;12.68;;;14.20;88.50;;;;;;5048301;28;20029;-76
2021/10/14 09:37:01;;;;;;;22.00;15.25;;;14.30;88.50;;;;;;5033197;28;20097;-76
2021/10/14 09:39:27;;;;;;;17.55;13.48;;;14.30;88.40;;;;;;5048136;28;20045;-75
2021/10/14 09:41:53;;;;;;;17.83;12.63;;;14.30;88.40;;;;;;5047836;28;20026;-76
2021/10/14 09:44:20;;;;;;;15.80;11.88;;;14.40;88.30;;;;;;5032829;28;20091;-75
2021/10/14 09:46:51;;;;;;;17.13;13.07;;;14.50;88.30;;;;;;5032458;28;20014;-76
2021/10/14 09:49:32;;;;;;;17.52;12.68;;;14.50;88.20;;;;;;5032559;28;20032;-75
2021/10/14 09:52:00;;;;;;;16.33;11.23;;;14.50;88.10;;;;;;5047875;28;20014;-76
2021/10/14 09:54:30;;;;;;;18.33;12.88;;;14.50;88.10;;;;;;5047698;28;20113;-75
2021/10/14 09:56:58;;;;;;;17.85;14.40;;;14.50;88.00;;;;;;5032323;28;20414;-76
2021/10/14 09:59:25;;;;;;;18.70;13.95;;;14.50;88.00;;;;;;5047208;28;20022;-76
2021/10/14 10:01:56;;;;;;;17.13;13.45;;;14.50;88.00;;;;;;5048028;28;20028;-76
2021/10/14 10:04:25;;;;;;;17.23;13.27;;;14.50;88.20;;;;;;5032460;28;20092;-76
2021/10/14 10:06:54;;;;;;;17.75;13.27;;;14.40;88.10;;;;;;5047706;28;20392;-76
2021/10/14 10:09:21;;;;;;;16.98;12.77;;;14.50;88.20;;;;;;5032349;28;20026;-77
2021/10/14 10:11:50;;;;;;;16.80;13.02;;;14.50;88.10;;;;;;5032279;28;20389;-76
2021/10/14 10:14:19;;;;;;;18.40;13.93;;;14.50;88.10;;;;;;5047809;28;20473;-76
2021/10/14 10:16:59;;;;;;;20.75;14.27;;;14.50;88.10;;;;;;5047730;28;20051;-75
2021/10/14 10:19:45;;;;;;;18.77;13.40;;;14.50;88.10;;;;;;5032310;28;20025;-76
2021/10/14 10:22:11;;;;;;;17.52;13.68;;;14.50;88.20;;;;;;5047621;28;20180;-76
2021/10/14 10:24:37;;;;;;;17.95;13.18;;;14.50;88.20;;;;;;5032067;28;20021;-75
2021/10/14 10:27:08;;;;;;;21.33;14.88;;;14.50;88.20;;;;;;5047495;28;20026;-75
2021/10/14 10:29:36;;;;;;;20.02;15.63;;;14.50;88.30;;;;;;5032291;28;20025;-75
2021/10/14 10:32:05;;;;;;;19.15;13.93;;;14.50;88.50;;;;;;5047420;28;20431;-75
2021/10/14 10:34:41;;;;;;;18.35;13.50;;;14.60;88.50;;;;;;5047337;28;20128;-75
2021/10/14 10:37:18;;;;;;;20.90;15.32;;;14.60;88.50;;;;;;5047512;28;20036;-76
2021/10/14 10:39:49;;;;;;;19.33;15.38;;;14.70;88.40;;;;;;5032086;28;20037;-76
2021/10/14 10:42:34;;;;;;;20.35;15.63;;;14.70;88.40;;;;;;5032060;28;20180;-76
2021/10/14 10:45:14;;;;;;;20.48;14.40;;;14.70;88.30;;;;;;5031930;28;20025;-76
2021/10/14 10:47:49;;;;;;;19.05;13.55;;;14.80;88.30;;;;;;5047347;28;20030;-77
2021/10/14 10:53:39;;;;;;;20.10;15.20;;;15.00;87.90;;;;;;5032447;28;20049;-75
2021/10/14 10:56:06;;;;;;;16.40;14.30;;;15.10;87.60;;;;;;5032317;28;20389;-75
2021/10/14 11:01:54;;;;;;;15.88;13.02;;;15.20;87.30;;;;;;5032244;28;20036;-75
2021/10/14 11:04:21;;;;;;;20.13;14.18;;;15.30;87.20;;;;;;5047733;28;20025;-75
2021/10/14 11:06:52;;;;;;;16.30;13.20;;;15.40;87.00;;;;;;5032269;28;20039;-75
2021/10/14 11:09:17;;;;;;;16.35;13.40;;;15.40;86.90;;;;;;5048461;28;20041;-75
2021/10/14 11:11:43;;;;;;;17.38;13.77;;;15.50;86.90;;;;;;5035419;28;20026;-76
2021/10/14 11:14:10;;;;;;;15.20;13.52;;;15.50;86.70;;;;;;5035497;28;20030;-76
2021/10/14 11:16:36;;;;;;;18.17;14.23;;;15.50;86.60;;;;;;5035237;28;20033;-75
2021/10/14 11:19:01;;;;;;;17.67;14.18;;;15.50;86.50;;;;;;5037685;28;20025;-76
2021/10/14 11:21:29;;;;;;;17.95;13.65;;;15.40;86.50;;;;;;5035280;28;20045;-74
2021/10/14 11:23:58;;;;;;;18.52;14.85;;;15.50;86.50;;;;;;5035085;28;20033;-74
2021/10/14 11:26:57;;;;;;;18.65;14.25;;;15.50;86.40;;;;;;5050472;28;20509;-74
2021/10/14 11:29:25;;;;;;;18.38;14.07;;;15.50;86.30;;;;;;5035138;28;20488;-75
2021/10/14 11:32:01;;;;;;;18.48;13.48;;;15.50;86.20;;;;;;5034952;28;20133;-75
2021/10/14 11:34:28;;;;;;;18.25;14.32;;;15.40;86.10;;;;;;5050277;28;20033;-75
2021/10/14 11:40:35;;;;;;;17.00;13.75;;;15.30;86.30;;;;;;5035131;28;20117;-75
2021/10/14 11:43:01;;;;;;;16.50;11.23;;;15.30;86.40;;;;;;5050044;28;20036;-75
2021/10/14 11:45:27;;;;;;;13.50;11.45;;;15.30;86.40;;;;;;5050109;28;20493;-77
2021/10/14 11:47:52;;;;;;;13.40;12.02;;;15.50;86.40;;;;;;5050056;28;20037;-76
2021/10/14 11:50:23;;;;;;;13.52;11.85;;;15.60;86.20;;;;;;5050040;28;20031;-77
2021/10/14 11:53:04;;;;;;;13.38;11.20;;;15.70;86.00;;;;;;5034642;28;20117;-76
2021/10/14 11:55:30;;;;;;;14.88;11.45;;;15.80;85.70;;;;;;5034688;28;20034;-76
2021/10/14 11:57:58;;;;;;;13.63;11.13;;;15.80;85.40;;;;;;5033469;28;20075;-76
2021/10/14 12:00:25;;;;;;;12.80;9.38;;;15.90;85.30;;;;;;5050070;28;20037;-76
2021/10/14 12:02:52;;;;;;;15.07;10.98;;;15.90;85.30;;;;;;5034571;28;20034;-76
2021/10/14 12:05:18;;;;;;;12.95;10.75;;;15.80;85.00;;;;;;5049858;28;20385;-76
2021/10/14 12:07:44;;;;;;;10.80;9.70;;;15.70;85.10;;;;;;5034519;28;20061;-76
2021/10/14 12:10:31;;;;;;;11.85;10.10;;;15.70;85.30;;;;;;5034790;28;20051;-76
2021/10/14 12:13:05;;;;;;;12.95;10.20;;;15.70;85.20;;;;;;5049785;28;20029;-76
2021/10/14 12:18:52;;;;;;;13.20;10.20;;;15.60;85.40;;;;;;5034426;28;20064;-76
2021/10/14 12:21:33;;;;;;;12.05;10.75;;;15.60;85.30;;;;;;5033822;28;20049;-76
2021/10/14 12:24:11;;;;;;;14.73;11.23;;;15.50;85.10;;;;;;5034015;28;20190;-75
2021/10/14 12:26:43;;;;;;;11.25;9.48;;;15.50;85.10;;;;;;5034191;28;20075;-76
2021/10/14 12:29:18;;;;;;;12.48;10.05;;;15.50;85.20;;;;;;5049406;28;20057;-76
2021/10/14 12:31:44;;;;;;;14.18;9.48;;;15.50;85.10;;;;;;5034349;28;20029;-76
2021/10/14 12:34:10;;;;;;;16.00;11.15;;;15.60;85.10;;;;;;5049434;28;20048;-76
2021/10/14 12:36:46;;;;;;;10.98;9.52;;;15.60;84.80;;;;;;5049243;28;20125;-76
2021/10/14 12:39:19;;;;;;;12.73;9.95;;;15.60;84.60;;;;;;5033262;28;20045;-76
2021/10/14 12:41:52;;;;;;;;;;;15.70;84.50;;;;;;5049547;28;20029;-76
2021/10/14 12:44:18;;;;;;;11.18;9.60;;;15.70;84.30;;;;;;5049011;28;19959;-76
2021/10/14 12:52:31;;;;;;;13.63;10.95;;;16.10;83.70;;;;;;5033534;28;20025;-77
2021/10/14 12:55:05;;;;;;;14.20;11.88;;;16.10;83.30;;;;;;5048726;28;20022;-76
2021/10/14 12:57:30;;;;;;;12.45;11.15;;;16.20;83.10;;;;;;5032046;28;20030;-76
2021/10/14 12:59:56;;;;;;;15.27;12.85;;;16.10;82.80;;;;;;5048659;28;20030;-76
2021/10/14 13:02:22;;;;;;;15.60;12.68;;;16.00;82.50;;;;;;5032022;28;20029;-77
2021/10/14 13:08:09;;;;;;;14.63;12.85;;;15.90;82.80;;;;;;5033156;28;20500;-76